Time;durP1;ratioP1;P1;durP2;ratioP2;P2;SDS_P1;SDS_P2;PMS_P1;PMS_P2;Temp;Humidity;BMP_temperature;BMP_pressure;BME280_temperature;BME280_humidity;BME280_pressure;Samples;Min_cycle;Max_cycle;Signal;HPM_P1;HPM_P2
2022/12/12 00:04:56;;;;;;;8.70;3.97;;;0.50;99.90;;;-1.82;92.69;98919.06;10610578;27;20059;-88
2022/12/12 00:09:59;;;;;;;10.17;4.43;;;0.40;99.90;;;-1.80;92.76;98918.94;10609696;27;20066;-87
2022/12/12 00:15:03;;;;;;;12.10;4.53;;;0.40;99.90;;;-1.80;92.84;98931.97;10591639;27;20063;-88
2022/12/12 00:20:07;;;;;;;6.73;3.90;;;0.50;99.90;;;-1.83;92.34;98942.63;10598245;27;20526;-88
2022/12/12 00:25:10;;;;;;;11.17;4.30;;;0.40;99.90;;;-1.83;91.95;98955.66;10575044;27;20058;-88
2022/12/12 00:30:14;;;;;;;8.53;4.17;;;0.40;99.90;;;-1.86;91.81;98945.47;10591949;27;20070;-88
2022/12/12 00:35:17;;;;;;;18.33;6.43;;;0.40;99.90;;;-1.89;91.52;98957.78;10623605;27;20056;-88
2022/12/12 00:40:20;;;;;;;21.50;7.13;;;0.40;99.90;;;-1.89;91.58;98976.00;10584916;27;20095;-90
2022/12/12 00:45:23;;;;;;;8.90;4.23;;;0.40;99.90;;;-1.92;91.26;98986.69;10594785;27;20441;-88
2022/12/12 00:50:26;;;;;;;10.10;4.40;;;0.30;99.90;;;-1.96;91.62;98987.84;10608306;27;20094;-89
2022/12/12 00:55:29;;;;;;;9.40;4.70;;;0.30;99.90;;;-2.03;91.18;98983.25;10581697;27;20052;-88
2022/12/12 01:00:34;;;;;;;7.70;3.87;;;0.20;99.90;;;-2.13;90.98;98974.47;10567151;27;20515;-88
2022/12/12 01:05:37;;;;;;;8.73;3.93;;;0.10;99.90;;;-2.22;90.65;98976.00;10592447;27;20090;-88
2022/12/12 01:10:40;;;;;;;8.63;4.27;;;0.00;99.90;;;-2.23;90.73;98976.94;10597878;27;20059;-88
2022/12/12 01:15:43;;;;;;;11.50;4.60;;;-0.10;99.90;;;-2.28;90.64;98973.84;10580729;27;20064;-88
2022/12/12 01:20:46;;;;;;;12.90;5.00;;;-0.10;99.90;;;-2.30;90.85;98967.94;10579020;27;20064;-87
2022/12/12 01:25:49;;;;;;;9.77;4.93;;;-0.10;99.90;;;-2.35;90.93;98967.47;10582892;27;20130;-88
2022/12/12 01:30:52;;;;;;;8.43;4.07;;;-0.10;99.90;;;-2.36;91.19;98965.81;10573710;27;20090;-87
2022/12/12 01:35:55;;;;;;;9.70;4.27;;;-0.20;99.90;;;-2.39;90.88;98960.84;10601860;27;20082;-88
2022/12/12 01:40:58;;;;;;;7.63;3.90;;;-0.10;99.90;;;-2.40;90.89;98960.00;10585254;27;20064;-87
2022/12/12 01:46:01;;;;;;;11.63;4.47;;;-0.10;99.90;;;-2.39;91.06;98955.66;10634914;27;20087;-87
2022/12/12 01:51:13;;;;;;;6.67;3.90;;;-0.10;99.90;;;-2.43;90.77;98942.88;10651647;27;20114;-87
2022/12/12 01:56:19;;;;;;;13.03;4.83;;;-0.20;99.90;;;-2.45;90.93;98939.56;10562748;27;20067;-87
2022/12/12 02:01:23;;;;;;;8.27;3.70;;;-0.20;99.90;;;-2.49;90.01;98939.91;10575488;27;20106;-87
2022/12/12 02:06:28;;;;;;;10.90;4.23;;;-0.20;99.90;;;-2.52;90.28;98951.38;10592333;27;20146;-87
2022/12/12 02:11:41;;;;;;;10.13;3.63;;;-0.20;99.90;;;-2.60;90.66;98951.09;10598041;27;20066;-87
2022/12/12 02:17:15;;;;;;;3.93;2.43;;;-0.30;99.90;;;-2.66;89.81;98959.38;10608370;27;20133;-86
2022/12/12 02:22:57;;;;;;;7.10;3.30;;;-0.30;99.90;;;-2.72;89.49;98955.47;10597498;27;20496;-87
2022/12/12 02:28:26;;;;;;;11.63;4.30;;;-0.40;99.90;;;-2.78;90.01;98949.88;10607914;27;20064;-84
2022/12/12 02:33:58;;;;;;;14.47;5.53;;;-0.40;99.90;;;-2.89;90.21;98958.47;10613013;27;20087;-83
2022/12/12 02:39:28;;;;;;;7.45;3.53;;;-0.50;99.90;;;-2.96;90.46;98965.91;10611570;27;20079;-84
2022/12/12 02:45:01;;;;;;;14.40;5.60;;;-0.60;99.90;;;-2.99;91.09;98955.75;10612089;27;20051;-84
2022/12/12 02:50:17;;;;;;;13.33;6.00;;;-0.60;99.90;;;-3.00;91.45;98954.09;10569134;28;20063;-83
2022/12/12 02:55:20;;;;;;;12.20;6.27;;;-0.60;99.90;;;-2.99;91.61;98955.75;10580873;27;20446;-84
2022/12/12 03:00:24;;;;;;;14.63;6.77;;;-0.60;99.90;;;-2.98;91.71;98959.16;10574585;27;20469;-83
2022/12/12 03:11:12;;;;;;;16.20;7.27;;;-0.60;99.90;;;-2.99;91.26;98941.91;10607109;27;20105;-87
2022/12/12 03:16:37;;;;;;;15.97;6.57;;;-0.60;99.90;;;-3.03;90.49;98962.09;10568935;27;20624;-87
2022/12/12 03:22:16;;;;;;;12.30;5.10;;;-0.60;99.90;;;-3.02;89.89;98955.94;10577443;27;20412;-86
2022/12/12 03:27:30;;;;;;;11.77;5.70;;;-0.60;99.90;;;-3.04;88.64;98964.81;10561495;27;20125;-87
2022/12/12 03:33:05;;;;;;;12.97;5.73;;;-0.60;99.90;;;-3.08;87.61;98969.41;10590307;27;20117;-86
2022/12/12 03:38:33;;;;;;;10.83;5.13;;;-0.60;99.90;;;-3.10;87.12;98971.28;10593560;27;20060;-87
2022/12/12 03:44:05;;;;;;;17.87;6.50;;;-0.60;99.90;;;-3.11;87.02;98979.19;10571381;27;20060;-87
2022/12/12 03:49:17;;;;;;;10.83;5.43;;;-0.70;99.90;;;-3.13;86.24;98988.84;10609349;27;20526;-88
2022/12/12 03:54:53;;;;;;;14.73;6.93;;;-0.70;99.90;;;-3.13;85.95;98994.06;10567252;28;20145;-88
2022/12/12 04:00:06;;;;;;;17.07;8.40;;;-0.70;99.90;;;-3.17;85.51;98998.66;10587400;27;20060;-88
2022/12/12 04:16:43;;;;;;;12.77;5.47;;;-0.70;99.90;;;-3.30;85.70;99032.50;10595194;27;20101;-85
2022/12/12 04:27:49;;;;;;;15.10;5.27;;;-0.80;99.90;;;-3.37;86.67;99054.63;10582178;27;20106;-87
2022/12/12 04:33:16;;;;;;;14.57;4.15;;;-0.80;99.90;;;-3.40;86.45;99067.00;10575815;27;20144;-87
2022/12/12 04:38:22;;;;;;;13.27;5.23;;;-0.90;99.90;;;-3.45;86.28;99069.09;10580821;27;20056;-87
2022/12/12 04:43:33;;;;;;;12.23;5.73;;;-0.90;99.90;;;-3.48;86.00;99072.72;10582084;27;20059;-89
2022/12/12 04:49:29;;;;;;;12.48;5.28;;;-1.00;99.90;;;-3.55;85.31;99085.28;10589901;27;20388;-92
2022/12/12 04:55:04;;;;;;;13.00;5.70;;;-1.00;99.90;;;-3.65;84.86;99094.69;10592342;27;20412;-90
2022/12/12 05:00:11;;;;;;;12.03;5.00;;;-1.10;99.90;;;-3.72;84.95;99090.81;10594023;27;20148;-85
2022/12/12 05:05:21;;;;;;;13.73;5.63;;;-1.10;99.90;;;-3.76;84.67;99086.78;10599827;27;20055;-87
2022/12/12 05:10:24;;;;;;;15.53;5.90;;;-1.20;99.90;;;-3.80;83.91;99093.13;10616330;27;20142;-88
2022/12/12 05:15:28;;;;;;;12.90;5.87;;;-1.20;99.90;;;-3.83;83.12;99072.56;10575144;27;20056;-88
2022/12/12 05:20:31;;;;;;;13.97;4.93;;;-1.30;99.90;;;-3.80;82.10;99075.78;10584392;27;20059;-87
2022/12/12 05:25:35;;;;;;;12.50;5.37;;;-1.30;99.90;;;-3.83;81.64;99078.59;10604779;27;20055;-88
2022/12/12 05:30:38;;;;;;;14.93;6.07;;;-1.30;99.90;;;-3.85;81.26;99095.19;10627573;27;20066;-87
2022/12/12 05:35:41;;;;;;;13.43;5.73;;;-1.30;99.90;;;-3.92;81.23;99096.53;10568160;27;20060;-87
2022/12/12 05:40:44;;;;;;;11.23;5.30;;;-1.40;99.90;;;-3.99;81.38;99098.72;10603680;27;20056;-87
2022/12/12 05:45:47;;;;;;;15.73;6.60;;;-1.40;99.90;;;-4.03;81.66;99103.28;10622953;27;20078;-87
2022/12/12 05:50:51;;;;;;;12.83;5.40;;;-1.50;99.90;;;-4.09;81.92;99121.84;10595001;27;20109;-87
2022/12/12 05:55:54;;;;;;;14.70;5.60;;;-1.50;99.90;;;-4.14;81.98;99131.72;10585142;27;20060;-86
2022/12/12 06:00:57;;;;;;;13.50;5.00;;;-1.60;99.90;;;-4.20;81.97;99131.25;10583808;27;20067;-86
2022/12/12 06:06:05;;;;;;;13.50;5.53;;;-1.60;99.90;;;-4.25;82.26;99143.72;10623469;27;20060;-86
2022/12/12 06:11:08;;;;;;;13.37;6.23;;;-1.70;99.90;;;-4.31;81.62;99143.19;10606267;27;20201;-86
2022/12/12 06:16:17;;;;;;;11.13;4.63;;;-1.70;99.90;;;-4.32;81.32;99145.88;10579497;27;20063;-87
2022/12/12 06:21:21;;;;;;;16.87;6.77;;;-1.70;99.90;;;-4.37;81.51;99156.56;10594561;27;20139;-88
2022/12/12 06:26:25;;;;;;;14.17;6.20;;;-1.80;99.90;;;-4.42;81.40;99158.63;10614014;27;20113;-88
2022/12/12 06:31:29;;;;;;;11.40;4.30;;;-1.80;99.90;;;-4.51;81.57;99156.59;10608508;27;20064;-88
2022/12/12 06:36:32;;;;;;;11.23;5.30;;;-1.80;99.90;;;-4.45;81.99;99170.94;10572076;28;20064;-88
2022/12/12 06:41:35;;;;;;;10.70;4.63;;;-1.80;99.90;;;-4.45;81.94;99182.13;10591740;27;20067;-88
2022/12/12 06:46:38;;;;;;;10.13;4.80;;;-1.80;99.90;;;-4.51;82.50;99187.72;10601707;27;20431;-86
2022/12/12 06:51:45;;;;;;;8.80;4.33;;;-1.90;99.90;;;-4.48;82.77;99187.53;10594825;27;20062;-86
2022/12/12 06:56:48;;;;;;;13.43;5.20;;;-1.90;99.90;;;-4.29;82.76;99191.53;10642864;27;20065;-86
2022/12/12 07:01:55;;;;;;;12.43;5.37;;;-1.80;99.90;;;-4.17;82.87;99175.19;10574417;27;20064;-86
2022/12/12 07:06:59;;;;;;;11.33;5.43;;;-1.70;99.90;;;-4.06;82.05;99188.28;10538322;28;20146;-87
2022/12/12 07:12:02;;;;;;;16.47;6.10;;;-1.60;99.90;;;-4.07;82.00;99197.84;10561280;27;20056;-88
2022/12/12 07:17:05;;;;;;;23.20;8.60;;;-1.50;99.90;;;-3.99;81.74;99201.69;10564284;28;20114;-88
2022/12/12 07:22:08;;;;;;;16.03;6.87;;;-1.50;99.90;;;-3.93;81.51;99201.28;10558730;28;20141;-88
2022/12/12 07:27:12;;;;;;;13.70;6.07;;;-1.40;99.90;;;-3.77;81.78;99207.16;10560451;27;20096;-88
2022/12/12 07:32:23;;;;;;;14.93;6.07;;;-1.30;99.90;;;-3.47;80.77;99217.25;10561012;28;20070;-88
2022/12/12 07:37:26;;;;;;;15.20;6.87;;;-1.10;99.90;;;-3.11;79.90;99213.09;10542147;28;20518;-88
2022/12/12 07:42:28;;;;;;;13.67;6.00;;;-0.90;99.90;;;-2.77;78.21;99225.38;10544593;28;20060;-88
2022/12/12 07:47:31;;;;;;;12.03;5.40;;;-0.70;99.90;;;-2.46;77.25;99229.28;10560721;28;20063;-89
2022/12/12 07:52:34;;;;;;;14.40;6.47;;;-0.40;99.90;;;-2.17;75.87;99223.72;10544355;28;20106;-88
2022/12/12 07:57:38;;;;;;;14.00;6.13;;;-0.20;99.90;;;-1.78;74.94;99220.00;10558352;28;20056;-89
2022/12/12 08:02:41;;;;;;;12.67;6.00;;;0.10;99.90;;;-1.53;73.05;99224.22;10528594;28;20066;-88
2022/12/12 08:07:43;;;;;;;11.27;4.87;;;0.40;99.90;;;-1.48;71.10;99229.06;10576246;28;20137;-89
2022/12/12 08:12:47;;;;;;;11.10;5.53;;;0.50;99.90;;;-1.43;70.00;99224.34;10523549;28;20056;-89
2022/12/12 08:17:50;;;;;;;10.30;4.83;;;0.60;99.10;;;-1.42;68.22;99219.03;10575320;27;20083;-89
2022/12/12 08:22:53;;;;;;;18.53;6.60;;;0.80;97.80;;;-1.36;68.08;99228.97;10567975;28;20500;-90
2022/12/12 08:27:56;;;;;;;10.50;5.27;;;0.80;97.80;;;-1.33;67.26;99235.72;10543947;28;20061;-89
2022/12/12 08:32:59;;;;;;;9.77;4.60;;;0.90;97.30;;;-1.38;66.28;99225.66;10539392;28;20063;-90
2022/12/12 08:38:09;;;;;;;11.00;4.77;;;0.90;96.40;;;-1.31;66.71;99214.78;10617613;27;20067;-88
2022/12/12 08:43:12;;;;;;;9.47;4.70;;;1.00;96.40;;;-1.24;66.43;99229.84;10543136;28;20419;-90
2022/12/12 08:48:15;;;;;;;11.23;5.33;;;1.10;96.40;;;-1.43;66.87;99230.41;10552038;28;20071;-89
2022/12/12 08:53:18;;;;;;;15.13;5.80;;;1.00;96.20;;;-1.75;67.74;99240.59;10537306;28;20062;-90
2022/12/12 08:58:22;;;;;;;15.13;6.43;;;0.70;96.70;;;-1.98;69.00;99252.72;10566988;28;20065;-91
2022/12/12 09:03:25;;;;;;;13.63;6.10;;;0.50;97.10;;;-2.11;69.42;99257.13;10581587;28;20068;-91
2022/12/12 09:08:31;;;;;;;13.83;5.70;;;0.40;97.50;;;-1.84;70.39;99264.72;10580785;28;20067;-92
2022/12/12 09:13:35;;;;;;;10.40;5.23;;;0.70;98.20;;;-1.49;69.89;99249.09;10579076;28;20499;-92
2022/12/12 09:18:39;;;;;;;10.30;4.93;;;1.00;97.70;;;-1.39;68.35;99257.88;10553747;27;20110;-94
2022/12/12 09:23:50;;;;;;;9.73;4.30;;;1.20;96.30;;;-1.48;68.19;99258.56;10566554;28;20164;-93
2022/12/12 09:28:53;;;;;;;10.53;5.00;;;1.10;96.00;;;-1.69;67.57;99253.16;10560876;28;20078;-94
2022/12/12 09:33:56;;;;;;;11.53;4.73;;;0.90;96.00;;;-1.71;68.75;99254.22;10566822;28;20063;-93
2022/12/12 09:38:59;;;;;;;14.10;4.97;;;0.80;96.70;;;-1.73;68.49;99269.16;10567463;28;20091;-93
2022/12/12 09:44:11;;;;;;;11.00;5.10;;;0.70;96.40;;;-1.77;67.97;99258.13;10566499;28;20523;-93
2022/12/12 09:49:40;;;;;;;9.57;4.27;;;0.70;96.50;;;-1.73;69.08;99256.13;10588344;27;20468;-92
2022/12/12 09:54:45;;;;;;;11.00;5.00;;;0.70;96.80;;;-1.73;69.10;99243.94;10540603;28;20114;-93
2022/12/12 10:00:11;;;;;;;10.67;4.50;;;0.70;96.70;;;-1.70;69.39;99253.28;10523748;28;20527;-92
2022/12/12 10:05:40;;;;;;;10.60;4.67;;;0.80;97.00;;;-1.69;69.42;99254.94;10547388;27;20617;-93
2022/12/12 10:10:49;;;;;;;8.23;3.97;;;0.80;96.80;;;-1.75;68.52;99247.56;10607649;27;20067;-93
2022/12/12 10:16:02;;;;;;;6.27;3.40;;;0.70;95.90;;;-1.85;67.44;99252.66;10552244;28;20059;-91
2022/12/12 10:21:18;;;;;;;9.03;3.87;;;0.70;95.60;;;-1.89;67.29;99279.84;10588620;28;20423;-95
2022/12/12 10:26:26;;;;;;;9.90;5.20;;;0.60;95.70;;;-1.95;67.67;99283.72;10571012;28;20060;-90
2022/12/12 10:32:19;;;;;;;8.90;3.93;;;0.50;95.80;;;-2.04;67.88;99274.00;10583742;27;20085;-89
2022/12/12 10:37:35;;;;;;;9.20;4.10;;;0.50;95.90;;;-2.02;68.79;99281.69;10593180;27;20490;-95
2022/12/12 10:43:16;;;;;;;11.77;4.60;;;0.50;96.20;;;-2.05;68.07;99285.31;10583052;27;20117;-92
2022/12/12 10:48:19;;;;;;;11.17;5.00;;;0.40;96.10;;;-2.04;68.76;99273.13;10562061;27;20491;-92
2022/12/12 10:53:22;;;;;;;9.63;4.23;;;0.50;96.40;;;-1.93;69.52;99286.22;10597291;27;20064;-91
2022/12/12 10:58:49;;;;;;;8.53;3.87;;;0.60;96.60;;;-1.91;68.83;99285.19;10593673;27;20414;-92
2022/12/12 11:03:53;;;;;;;9.50;4.10;;;0.60;96.30;;;-1.89;68.52;99283.28;10563214;27;20063;-91
2022/12/12 11:09:14;;;;;;;7.23;3.77;;;0.70;96.20;;;-1.85;68.43;99290.88;10602781;27;20067;-91
2022/12/12 11:14:37;;;;;;;11.33;4.60;;;0.70;95.60;;;-1.92;67.88;99291.34;10614380;27;20062;-92
2022/12/12 11:19:44;;;;;;;10.20;4.57;;;0.60;95.40;;;-1.96;67.20;99294.25;10631209;27;20089;-91
2022/12/12 11:24:49;;;;;;;8.40;3.83;;;0.60;95.00;;;-1.99;66.25;99304.88;10612001;27;20054;-91
2022/12/12 11:30:23;;;;;;;8.77;4.13;;;0.50;94.10;;;-2.11;66.44;99293.56;10595320;27;20113;-90
2022/12/12 11:35:36;;;;;;;10.20;4.83;;;0.40;94.70;;;-2.14;67.16;99293.81;10610532;27;20089;-91
2022/12/12 11:41:03;;;;;;;8.93;3.93;;;0.40;95.30;;;-2.00;67.80;99295.41;10620761;27;20062;-91
2022/12/12 11:46:22;;;;;;;9.73;4.20;;;0.50;95.60;;;-1.88;67.58;99300.56;10591312;27;20515;-91
2022/12/12 11:51:44;;;;;;;10.43;4.37;;;0.70;95.30;;;-1.77;67.63;99301.56;10579637;27;20066;-91
2022/12/12 11:56:50;;;;;;;;;;;0.80;95.60;;;-1.75;68.40;99310.09;10578156;27;20091;-91
2022/12/12 12:02:28;;;;;;;10.13;3.83;;;0.80;96.00;;;-1.69;69.05;99313.06;10633595;27;20026;-91
2022/12/12 12:08:18;;;;;;;8.50;3.90;;;0.90;96.40;;;-1.89;69.31;99309.31;10644763;27;20136;-90
2022/12/12 12:13:32;;;;;;;7.77;4.10;;;0.80;96.20;;;-2.05;70.80;99308.75;10607939;27;20139;-92
2022/12/12 12:18:52;;;;;;;9.80;4.73;;;0.60;97.10;;;-2.15;72.12;99318.19;10636822;27;20055;-91
2022/12/12 12:24:14;;;;;;;12.03;5.20;;;0.40;97.90;;;-2.18;73.41;99302.75;10627212;27;20526;-90
2022/12/12 12:29:35;;;;;;;9.30;3.97;;;0.30;98.40;;;-2.20;73.25;99309.84;10595289;27;20461;-90
2022/12/12 12:35:24;;;;;;;11.77;5.53;;;0.30;98.30;;;-2.23;74.83;99308.28;10637622;27;20067;-91
2022/12/12 12:40:51;;;;;;;12.73;5.53;;;0.30;99.10;;;-2.25;75.95;99302.38;10611631;27;20124;-90
2022/12/12 12:46:31;;;;;;;13.90;5.63;;;0.30;99.90;;;-2.29;78.15;99311.31;10623233;27;20058;-91
2022/12/12 12:51:41;;;;;;;10.80;4.50;;;0.20;99.90;;;-2.38;79.63;99322.41;10602672;27;20409;-91
2022/12/12 12:57:37;;;;;;;9.80;5.00;;;0.20;99.90;;;-2.45;81.59;99321.16;10589891;27;20060;-92
2022/12/12 13:02:54;;;;;;;11.30;4.67;;;0.10;99.90;;;-2.55;82.74;99323.56;10597867;27;20404;-91
2022/12/12 13:08:48;;;;;;;9.23;4.23;;;0.00;99.90;;;-2.65;84.22;99332.94;10628938;27;20170;-92
2022/12/12 13:13:55;;;;;;;10.27;4.22;;;-0.10;99.90;;;-2.71;85.59;99333.34;10616521;27;20592;-89
2022/12/12 13:19:31;;;;;;;9.17;4.57;;;-0.20;99.90;;;-2.85;87.28;99328.28;10575375;27;20060;-91
2022/12/12 13:25:18;;;;;;;9.57;5.23;;;-0.30;99.90;;;-2.92;89.09;99327.03;10574810;27;20147;-91
2022/12/12 13:30:35;;;;;;;9.17;4.50;;;-0.40;99.90;;;-3.02;88.48;99314.63;10580657;27;20080;-89
2022/12/12 13:35:47;;;;;;;9.83;4.67;;;-0.50;99.90;;;-3.01;88.02;99323.25;10596734;27;20064;-89
2022/12/12 13:41:05;;;;;;;12.93;5.53;;;-0.50;99.90;;;-3.07;87.74;99314.09;10581235;27;20056;-89
2022/12/12 13:46:26;;;;;;;13.50;6.47;;;-0.60;99.90;;;-3.03;86.83;99333.78;10616154;27;20083;-90
2022/12/12 13:51:30;;;;;;;21.47;9.17;;;-0.60;99.90;;;-3.03;86.95;99325.97;10613316;27;20058;-88
2022/12/12 13:56:54;;;;;;;11.40;5.63;;;-0.60;99.90;;;-3.02;87.62;99338.03;10571549;28;20064;-91
2022/12/12 14:02:02;;;;;;;15.23;5.50;;;-0.60;99.90;;;-3.02;87.96;99342.41;10594410;27;20142;-92
2022/12/12 14:07:16;;;;;;;15.13;6.43;;;-0.60;99.90;;;-3.05;87.54;99346.06;10629636;27;20056;-91
2022/12/12 14:12:32;;;;;;;11.07;4.13;;;-0.60;99.90;;;-2.99;87.98;99347.41;10588187;27;20129;-89
2022/12/12 14:17:37;;;;;;;8.03;3.70;;;-0.50;99.90;;;-3.01;88.58;99333.66;10580264;27;20533;-88
2022/12/12 14:22:44;;;;;;;9.30;4.50;;;-0.50;99.90;;;-2.99;88.91;99339.59;10548357;28;20416;-88
2022/12/12 14:27:48;;;;;;;7.13;3.37;;;-0.50;99.90;;;-3.04;88.81;99323.50;10623345;27;20074;-90
2022/12/12 14:33:16;;;;;;;10.73;4.63;;;-0.60;99.90;;;-3.04;88.78;99331.28;10595693;27;20504;-90
2022/12/12 14:38:40;;;;;;;7.47;3.50;;;-0.60;99.90;;;-3.07;88.36;99334.91;10648148;27;20105;-90
2022/12/12 14:43:54;;;;;;;10.90;4.30;;;-0.60;99.90;;;-3.09;88.14;99341.97;10631594;27;20066;-89
2022/12/12 14:49:18;;;;;;;16.03;6.10;;;-0.60;99.90;;;-3.08;88.18;99351.44;10592055;27;20499;-90
2022/12/12 14:54:23;;;;;;;14.30;5.93;;;-0.60;99.90;;;-3.08;88.46;99359.22;10599007;27;20070;-90
2022/12/12 14:59:36;;;;;;;9.60;4.33;;;-0.60;99.90;;;-3.14;88.29;99359.63;10609836;27;20150;-91
2022/12/12 15:04:42;;;;;;;13.77;5.87;;;-0.60;99.90;;;-3.11;88.48;99380.25;10610029;27;20055;-89
2022/12/12 15:09:48;;;;;;;11.17;5.03;;;-0.60;99.90;;;-3.15;88.65;99373.56;10590371;27;20063;-88
2022/12/12 15:14:55;;;;;;;11.30;5.20;;;-0.60;99.90;;;-3.12;88.81;99378.59;10598662;27;20150;-90
2022/12/12 15:20:14;;;;;;;12.53;5.37;;;-0.60;99.90;;;-3.13;88.76;99392.50;10575823;27;20059;-88
2022/12/12 15:25:22;;;;;;;13.77;4.77;;;-0.60;99.90;;;-3.13;88.91;99402.88;10568093;27;20056;-88
2022/12/12 15:30:41;;;;;;;8.27;3.90;;;-0.60;99.90;;;-3.13;89.08;99412.44;10573729;27;20067;-87
2022/12/12 15:35:57;;;;;;;8.53;3.53;;;-0.60;99.90;;;-3.14;88.95;99416.81;10605770;27;20114;-91
2022/12/12 15:41:07;;;;;;;9.17;3.47;;;-0.60;99.90;;;-3.12;89.24;99419.31;10596972;27;20116;-90
2022/12/12 15:46:15;;;;;;;5.72;2.85;;;-0.60;99.90;;;-3.13;89.27;99417.66;10574895;27;20056;-90
2022/12/12 15:51:19;;;;;;;9.37;4.60;;;-0.60;99.90;;;-3.13;89.12;99412.44;10567592;27;20047;-89
2022/12/12 15:56:28;;;;;;;8.17;4.30;;;-0.60;99.90;;;-3.08;88.76;99426.81;10596106;27;20059;-88
2022/12/12 16:01:31;;;;;;;13.23;5.03;;;-0.60;99.90;;;-3.06;87.36;99422.38;10555578;27;20095;-88
2022/12/12 16:06:44;;;;;;;6.37;2.83;;;-0.60;99.90;;;-3.00;86.16;99413.31;10593123;27;20060;-89
2022/12/12 16:11:59;;;;;;;9.43;3.57;;;-0.50;99.90;;;-2.99;85.54;99409.78;10616010;27;20446;-89
2022/12/12 16:17:18;;;;;;;7.17;2.80;;;-0.50;99.90;;;-3.00;85.07;99414.16;10626851;27;20059;-89
2022/12/12 16:22:50;;;;;;;9.30;4.00;;;-0.50;99.90;;;-3.02;84.58;99423.81;10607386;27;20055;-88
2022/12/12 16:28:16;;;;;;;6.97;3.00;;;-0.50;99.90;;;-3.00;83.98;99421.09;10605568;27;20063;-88
2022/12/12 16:33:36;;;;;;;6.00;3.10;;;-0.60;99.90;;;-3.01;84.03;99420.28;10578451;27;20090;-87
2022/12/12 16:38:41;;;;;;;6.80;3.00;;;-0.50;99.90;;;-3.00;83.18;99411.56;10576571;27;20055;-88
2022/12/12 16:43:43;;;;;;;5.83;2.87;;;-0.50;99.90;;;-3.04;83.45;99404.06;10591231;27;20152;-88
2022/12/12 16:48:47;;;;;;;9.83;3.77;;;-0.60;99.90;;;-3.06;83.98;99409.38;10608330;27;20062;-87
2022/12/12 16:53:50;;;;;;;9.67;4.20;;;-0.60;99.90;;;-3.10;84.63;99409.66;10617715;27;20060;-87
2022/12/12 16:58:54;;;;;;;7.33;3.77;;;-0.60;99.90;;;-3.15;84.77;99425.56;10583198;27;20060;-91
2022/12/12 17:03:58;;;;;;;10.87;4.40;;;-0.60;99.90;;;-3.16;84.58;99431.69;10567024;27;20071;-84
2022/12/12 17:09:01;;;;;;;9.47;3.60;;;-0.70;99.90;;;-3.22;84.41;99436.44;10606252;27;20055;-83
2022/12/12 17:14:04;;;;;;;7.53;3.33;;;-0.70;99.90;;;-3.28;84.47;99437.69;10583087;28;20067;-83
2022/12/12 17:19:07;;;;;;;8.37;3.47;;;-0.80;99.90;;;-3.30;84.21;99447.31;10598657;27;20064;-83
2022/12/12 17:24:10;;;;;;;19.33;4.27;;;-0.80;99.90;;;-3.35;84.19;99465.81;10586466;27;20066;-83
2022/12/12 17:29:13;;;;;;;6.87;3.07;;;-0.80;99.90;;;-3.41;84.12;99461.00;10581672;27;20141;-80
2022/12/12 17:34:16;;;;;;;9.90;3.67;;;-0.90;99.90;;;-3.43;84.37;99465.44;10600157;27;20067;-81
2022/12/12 17:39:19;;;;;;;18.27;5.23;;;-0.90;99.90;;;-3.45;85.20;99463.91;10594881;27;20051;-84
2022/12/12 17:44:22;;;;;;;13.17;4.93;;;-0.90;99.90;;;-3.45;85.67;99472.53;10580147;27;20119;-84
2022/12/12 17:49:25;;;;;;;8.40;4.20;;;-0.90;99.90;;;-3.52;86.41;99474.69;10606175;27;20397;-83
2022/12/12 17:54:28;;;;;;;11.73;5.83;;;-1.00;99.90;;;-3.52;87.26;99477.28;10591091;27;20392;-83
2022/12/12 17:59:31;;;;;;;13.13;6.07;;;-1.00;99.90;;;-3.52;88.40;99485.06;10589261;27;20060;-84
2022/12/12 18:04:36;;;;;;;13.20;5.87;;;-1.00;99.90;;;-3.50;89.92;99488.38;10579739;27;20457;-83
2022/12/12 18:09:39;;;;;;;19.37;9.47;;;-1.00;99.90;;;-3.45;90.62;99482.09;10615400;27;20143;-82
2022/12/12 18:14:42;;;;;;;14.57;6.30;;;-1.00;99.90;;;-3.40;91.45;99490.41;10630597;27;20052;-83
2022/12/12 18:19:46;;;;;;;14.53;6.60;;;-1.00;99.90;;;-3.42;91.29;99484.47;10576984;27;20060;-82
2022/12/12 18:24:49;;;;;;;11.27;5.97;;;-0.90;99.90;;;-3.39;91.75;99492.91;10588394;27;20082;-90
2022/12/12 18:29:52;;;;;;;15.27;6.73;;;-0.90;99.90;;;-3.42;91.64;99484.47;10609884;27;20051;-91
2022/12/12 18:34:55;;;;;;;9.60;5.50;;;-0.90;99.90;;;-3.44;91.65;99486.34;10555222;27;20060;-91
2022/12/12 18:39:58;;;;;;;16.77;6.20;;;-0.90;99.90;;;-3.46;91.62;99490.81;10561127;27;20118;-90
2022/12/12 18:45:01;;;;;;;16.67;7.43;;;-0.90;99.90;;;-3.42;92.30;99500.88;10579756;27;20476;-90
2022/12/12 18:50:04;;;;;;;14.73;6.03;;;-0.90;99.90;;;-3.38;92.30;99512.75;10606226;27;20064;-91
2022/12/12 18:55:08;;;;;;;12.13;5.87;;;-0.90;99.90;;;-3.33;92.46;99515.06;10608633;27;20051;-91
2022/12/12 19:00:11;;;;;;;13.00;5.43;;;-0.80;99.90;;;-3.29;92.36;99516.56;10620858;27;20070;-91
2022/12/12 19:05:15;;;;;;;11.93;5.60;;;-0.80;99.90;;;-3.20;92.45;99526.34;10614392;27;20506;-90
2022/12/12 19:10:18;;;;;;;17.33;6.80;;;-0.70;99.90;;;-3.10;92.29;99524.84;10585646;27;20051;-91
2022/12/12 19:15:21;;;;;;;13.20;5.50;;;-0.60;99.90;;;-3.04;92.09;99536.63;10596170;27;20666;-90
2022/12/12 19:20:24;;;;;;;14.87;7.00;;;-0.50;99.90;;;-2.95;91.65;99546.41;10612069;27;20056;-90
2022/12/12 19:25:27;;;;;;;10.87;5.23;;;-0.50;99.90;;;-2.90;90.87;99538.34;10603788;27;20067;-90
2022/12/12 19:30:31;;;;;;;7.97;3.93;;;-0.40;99.90;;;-2.82;90.59;99541.25;10603848;27;20060;-90
2022/12/12 19:35:36;;;;;;;8.60;3.83;;;-0.30;99.90;;;-2.80;89.75;99550.66;10582425;27;20060;-91
2022/12/12 19:40:39;;;;;;;10.73;4.93;;;-0.30;99.90;;;-2.75;89.67;99559.00;10576509;27;20064;-90
2022/12/12 19:45:42;;;;;;;10.80;4.37;;;-0.30;99.90;;;-2.74;89.23;99552.03;10566256;27;20059;-90
2022/12/12 19:50:45;;;;;;;12.53;5.40;;;-0.20;99.90;;;-2.70;89.10;99561.28;10567799;27;20088;-90
2022/12/12 19:55:48;;;;;;;11.00;5.43;;;-0.20;99.90;;;-2.67;88.89;99571.50;10594977;27;20120;-90
2022/12/12 20:00:51;;;;;;;9.80;4.87;;;-0.20;99.90;;;-2.68;88.97;99579.41;10590316;27;20526;-90
2022/12/12 20:06:11;;;;;;;12.00;4.87;;;-0.20;99.90;;;-2.67;88.96;99584.50;10598995;27;20055;-90
2022/12/12 20:11:20;;;;;;;8.87;3.90;;;-0.10;99.90;;;-2.64;89.10;99583.44;10591126;27;20055;-90
2022/12/12 20:16:26;;;;;;;11.17;4.87;;;-0.20;99.90;;;-2.63;88.69;99587.75;10581096;27;20064;-91
2022/12/12 20:21:29;;;;;;;7.20;3.77;;;-0.20;99.90;;;-2.67;88.34;99589.69;10603807;27;20064;-90
2022/12/12 20:26:56;;;;;;;8.87;3.80;;;-0.20;99.90;;;-2.68;88.25;99593.22;10602026;27;20060;-90
2022/12/12 20:32:00;;;;;;;11.40;4.97;;;-0.20;99.90;;;-2.70;88.40;99600.28;10582394;27;20067;-83
2022/12/12 20:37:03;;;;;;;10.27;4.10;;;-0.20;99.90;;;-2.75;88.24;99604.97;10611482;27;20110;-86
2022/12/12 20:42:06;;;;;;;8.63;4.13;;;-0.30;99.90;;;-2.78;88.26;99602.53;10593395;27;20055;-85
2022/12/12 20:47:13;;;;;;;9.97;4.77;;;-0.30;99.90;;;-2.82;88.85;99588.06;10585371;27;20062;-87
2022/12/12 20:52:16;;;;;;;9.10;4.40;;;-0.40;99.90;;;-2.90;89.34;99591.16;10565708;27;20059;-88
2022/12/12 20:57:18;;;;;;;8.87;5.47;;;-0.40;99.90;;;-2.93;89.86;99590.53;10617533;27;20058;-86
2022/12/12 21:02:21;;;;;;;14.10;5.70;;;-0.50;99.90;;;-2.94;90.23;99599.25;10579895;27;20059;-87
2022/12/12 21:07:31;;;;;;;9.57;5.10;;;-0.50;99.90;;;-3.00;90.45;99603.94;10575908;27;20055;-86
2022/12/12 21:12:34;;;;;;;9.27;4.37;;;-0.60;99.90;;;-3.03;91.11;99614.50;10573077;27;20094;-86
2022/12/12 21:17:37;;;;;;;10.07;4.87;;;-0.60;99.90;;;-3.04;91.00;99617.22;10574675;27;20095;-86
2022/12/12 21:22:40;;;;;;;12.37;5.20;;;-0.60;99.90;;;-3.06;91.40;99599.13;10560508;27;20064;-87
2022/12/12 21:27:43;;;;;;;10.57;4.73;;;-0.60;99.90;;;-3.02;91.57;99623.97;10572982;27;20408;-86
2022/12/12 21:32:46;;;;;;;12.97;5.77;;;-0.60;99.90;;;-3.03;91.72;99626.66;10568994;27;20063;-86
2022/12/12 21:37:49;;;;;;;11.43;5.17;;;-0.60;99.90;;;-3.07;91.70;99633.81;10579665;27;20052;-86
2022/12/12 21:42:52;;;;;;;10.47;4.67;;;-0.60;99.90;;;-3.08;92.17;99647.75;10560707;27;20056;-86
2022/12/12 21:47:55;;;;;;;12.40;5.77;;;-0.60;99.90;;;-3.09;92.27;99661.66;10640951;27;20117;-87
2022/12/12 21:58:19;;;;;;;8.75;4.53;;;-0.60;99.90;;;-3.09;93.06;99646.06;10561260;27;20060;-87